Time;durP1;ratioP1;P1;durP2;ratioP2;P2;SDS_P1;SDS_P2;PMS_P1;PMS_P2;Temp;Humidity;BMP_temperature;BMP_pressure;BME280_temperature;BME280_humidity;BME280_pressure;Samples;Min_cycle;Max_cycle;Signal;HPM_P1;HPM_P2
2022/01/16 00:00:40;;;;;;;16.52;7.60;;;27.30;99.90;;;;;;5034025;28;20248;-79
2022/01/16 00:06:01;;;;;;;16.50;8.00;;;27.60;99.90;;;;;;5012264;28;20221;-79
2022/01/16 00:08:32;;;;;;;19.38;8.70;;;27.60;99.90;;;;;;5036297;28;20186;-79
2022/01/16 00:11:02;;;;;;;14.95;6.90;;;27.70;99.90;;;;;;5032774;28;20210;-79
2022/01/16 00:13:35;;;;;;;16.80;7.13;;;27.60;99.90;;;;;;5038090;28;20198;-79
2022/01/16 00:16:05;;;;;;;13.57;7.40;;;27.70;99.90;;;;;;5039622;28;20198;-78
2022/01/16 00:18:49;;;;;;;14.88;6.70;;;27.70;99.90;;;;;;5032664;28;20185;-79
2022/01/16 00:21:20;;;;;;;15.55;7.05;;;27.80;99.90;;;;;;5037177;28;20547;-77
2022/01/16 00:23:52;;;;;;;13.90;6.72;;;27.80;99.90;;;;;;5029482;28;20222;-80
2022/01/16 00:26:24;;;;;;;15.50;6.65;;;27.90;99.90;;;;;;5039019;28;22291;-81
2022/01/16 00:28:57;;;;;;;16.17;6.70;;;27.90;99.90;;;;;;5032720;28;20584;-80
2022/01/16 00:31:28;;;;;;;15.30;6.50;;;28.00;99.90;;;;;;5031839;28;20210;-81
2022/01/16 00:33:58;;;;;;;13.93;7.32;;;27.80;99.90;;;;;;5033489;28;20249;-78
2022/01/16 00:36:29;;;;;;;14.98;7.55;;;27.80;99.90;;;;;;5034229;28;20187;-78
2022/01/16 00:39:00;;;;;;;16.30;7.13;;;27.70;99.90;;;;;;5033145;28;20202;-78
2022/01/16 00:41:31;;;;;;;16.25;7.25;;;27.80;99.90;;;;;;5032220;28;20194;-82
2022/01/16 00:44:04;;;;;;;13.18;6.80;;;27.70;99.90;;;;;;5031370;28;20219;-83
2022/01/16 00:46:35;;;;;;;14.18;7.50;;;27.80;99.90;;;;;;5025407;28;20221;-81
2022/01/16 00:49:06;;;;;;;16.08;6.57;;;28.00;99.90;;;;;;5032097;28;20558;-81
2022/01/16 00:51:37;;;;;;;16.42;7.20;;;28.40;99.90;;;;;;5028519;28;20214;-80
2022/01/16 00:54:08;;;;;;;15.93;6.88;;;28.70;99.90;;;;;;5034492;28;20186;-77
2022/01/16 00:56:39;;;;;;;14.88;6.43;;;28.80;99.90;;;;;;5030302;28;20198;-77
2022/01/16 00:59:11;;;;;;;13.82;6.90;;;28.90;99.90;;;;;;5031685;28;20198;-77
2022/01/16 01:01:42;;;;;;;13.63;6.63;;;28.70;99.90;;;;;;5032378;28;20194;-79
2022/01/16 01:04:12;;;;;;;12.60;6.40;;;28.70;99.90;;;;;;5032518;28;20217;-77
2022/01/16 01:06:43;;;;;;;12.43;7.13;;;28.70;99.90;;;;;;5032902;28;20195;-77
2022/01/16 01:09:14;;;;;;;11.05;6.43;;;28.60;99.90;;;;;;5033996;28;20277;-80
2022/01/16 01:11:48;;;;;;;14.20;6.30;;;28.60;99.90;;;;;;5045051;28;20213;-79
2022/01/16 01:14:26;;;;;;;14.48;6.00;;;28.60;99.90;;;;;;5032565;28;20194;-79
2022/01/16 01:17:01;;;;;;;11.50;6.53;;;28.60;99.90;;;;;;5032513;28;20194;-76
2022/01/16 01:19:34;;;;;;;14.82;6.72;;;28.60;99.90;;;;;;5035645;28;20188;-79
2022/01/16 01:22:06;;;;;;;15.93;6.32;;;28.60;99.90;;;;;;5033412;28;20186;-81
2022/01/16 01:24:37;;;;;;;13.88;6.55;;;28.50;99.90;;;;;;5036147;28;20275;-79
2022/01/16 01:27:17;;;;;;;13.95;6.55;;;28.40;99.90;;;;;;5030991;28;20582;-81
2022/01/16 01:29:58;;;;;;;16.42;6.35;;;28.40;99.90;;;;;;5030278;28;20194;-79
2022/01/16 01:32:30;;;;;;;12.90;5.75;;;28.30;99.90;;;;;;5026540;28;20214;-81
2022/01/16 01:35:01;;;;;;;14.10;6.05;;;28.20;99.90;;;;;;5030098;28;20554;-80
2022/01/16 01:37:31;;;;;;;13.35;6.35;;;28.20;99.90;;;;;;5031602;28;20269;-80
2022/01/16 01:40:03;;;;;;;15.70;5.75;;;28.20;99.90;;;;;;5031091;28;20186;-83
2022/01/16 01:42:41;;;;;;;14.65;5.85;;;28.30;99.90;;;;;;5031503;28;20190;-80
2022/01/16 01:51:09;;;;;;;12.45;5.47;;;28.20;99.90;;;;;;5036559;28;20217;-82
2022/01/16 01:53:40;;;;;;;11.63;5.10;;;28.10;99.90;;;;;;5033509;28;20186;-82
2022/01/16 01:56:13;;;;;;;12.90;5.70;;;28.00;99.90;;;;;;5032640;28;20190;-83
2022/01/16 01:58:44;;;;;;;17.45;5.82;;;28.00;99.90;;;;;;5031279;28;20655;-81
2022/01/16 02:01:16;;;;;;;14.20;4.82;;;28.00;99.90;;;;;;5033624;28;20197;-81
2022/01/16 02:03:48;;;;;;;14.95;5.38;;;28.00;99.90;;;;;;5031807;28;20221;-82
2022/01/16 02:06:21;;;;;;;12.15;4.93;;;28.00;99.90;;;;;;5042205;28;20301;-85
2022/01/16 02:08:56;;;;;;;16.92;5.47;;;27.90;99.90;;;;;;5031642;28;20187;-86
2022/01/16 02:11:31;;;;;;;14.65;4.78;;;27.90;99.90;;;;;;5031511;28;20675;-83
2022/01/16 02:14:09;;;;;;;15.52;5.40;;;27.90;99.90;;;;;;5034365;28;20277;-79
2022/01/16 02:28:13;;;;;;;13.90;4.45;;;27.90;99.90;;;;;;5033439;28;20294;-83
2022/01/16 02:31:13;;;;;;;15.57;5.40;;;27.90;99.90;;;;;;5035616;28;20194;-82
2022/01/16 02:36:43;;;;;;;10.10;4.07;;;28.10;99.90;;;;;;5035364;28;20198;-83
2022/01/16 02:39:16;;;;;;;13.60;4.28;;;28.10;99.90;;;;;;5034941;28;20564;-80
2022/01/16 02:41:48;;;;;;;13.57;4.60;;;28.10;99.90;;;;;;5028540;28;20186;-82
2022/01/16 02:44:23;;;;;;;13.25;4.10;;;28.10;99.90;;;;;;5034726;28;20213;-79
2022/01/16 02:46:54;;;;;;;12.10;4.30;;;28.00;99.90;;;;;;5028838;28;20660;-80
2022/01/16 02:49:26;;;;;;;15.80;4.15;;;28.10;99.90;;;;;;5035582;28;20190;-79
2022/01/16 02:51:59;;;;;;;12.45;4.22;;;28.10;99.90;;;;;;5035930;28;20207;-83
2022/01/16 02:54:35;;;;;;;14.48;4.30;;;27.90;99.90;;;;;;5034647;28;20601;-83
2022/01/16 02:57:08;;;;;;;14.30;4.20;;;27.90;99.90;;;;;;5035965;28;20214;-80
2022/01/16 02:59:39;;;;;;;14.38;4.15;;;27.90;99.90;;;;;;5034534;28;20570;-82
2022/01/16 03:02:10;;;;;;;17.55;4.03;;;27.80;99.90;;;;;;5035150;28;20198;-81
2022/01/16 03:04:41;;;;;;;14.45;4.22;;;27.90;99.90;;;;;;5035237;28;20222;-80
2022/01/16 03:07:12;;;;;;;16.02;4.82;;;27.90;99.90;;;;;;5034559;28;20688;-82
2022/01/16 03:10:01;;;;;;;13.63;3.85;;;27.90;99.90;;;;;;5034515;28;20194;-83
2022/01/16 03:12:32;;;;;;;14.48;3.97;;;27.90;99.90;;;;;;5034850;28;20329;-85
2022/01/16 03:15:03;;;;;;;16.42;4.18;;;27.80;99.90;;;;;;5040232;28;20722;-83
2022/01/16 03:17:41;;;;;;;14.38;4.13;;;28.00;99.90;;;;;;5034199;28;20586;-81
2022/01/16 03:22:58;;;;;;;12.60;4.10;;;27.90;99.90;;;;;;5033366;28;20289;-84
2022/01/16 03:25:31;;;;;;;15.65;4.15;;;27.70;99.90;;;;;;5034719;28;20233;-81
2022/01/16 03:28:01;;;;;;;14.00;4.15;;;27.70;99.90;;;;;;5034819;28;20194;-86
2022/01/16 03:30:32;;;;;;;15.18;4.07;;;27.70;99.90;;;;;;5035539;28;20194;-87
2022/01/16 03:33:03;;;;;;;14.90;3.58;;;27.80;99.90;;;;;;5034640;28;20214;-83
2022/01/16 03:35:33;;;;;;;13.20;3.88;;;27.80;99.90;;;;;;5030826;28;20249;-78
2022/01/16 03:38:05;;;;;;;16.67;3.80;;;27.90;99.90;;;;;;5034168;28;20269;-78
2022/01/16 03:40:37;;;;;;;13.88;4.00;;;28.00;99.90;;;;;;5036526;28;20190;-80
2022/01/16 03:43:13;;;;;;;14.60;4.30;;;27.90;99.90;;;;;;5039246;28;20661;-82
2022/01/16 03:45:48;;;;;;;15.45;3.70;;;27.70;99.90;;;;;;5034291;28;20198;-79
2022/01/16 03:48:19;;;;;;;11.98;3.90;;;27.60;99.90;;;;;;5037830;28;20182;-81
2022/01/16 03:50:50;;;;;;;16.25;4.13;;;27.50;99.90;;;;;;5035136;28;20202;-81
2022/01/16 03:53:20;;;;;;;14.20;3.55;;;27.50;99.90;;;;;;5039403;28;20623;-82
2022/01/16 03:55:53;;;;;;;18.00;3.70;;;27.40;99.90;;;;;;5034331;28;20190;-83
2022/01/16 03:58:24;;;;;;;14.90;3.90;;;27.30;99.90;;;;;;5035882;28;20198;-88
2022/01/16 04:00:54;;;;;;;14.48;3.95;;;27.20;99.90;;;;;;5036849;28;20186;-82
2022/01/16 04:03:25;;;;;;;13.38;3.63;;;27.30;99.90;;;;;;5036194;28;20633;-80
2022/01/16 04:05:56;;;;;;;17.42;4.10;;;27.40;99.90;;;;;;5034634;28;20461;-86
2022/01/16 04:08:29;;;;;;;14.40;4.18;;;27.40;99.90;;;;;;5034162;28;20250;-87
2022/01/16 04:11:02;;;;;;;16.15;3.60;;;27.30;99.90;;;;;;5035454;28;20217;-79
2022/01/16 04:13:32;;;;;;;16.75;4.10;;;27.20;99.90;;;;;;5034552;28;20621;-85
2022/01/16 04:16:03;;;;;;;15.73;3.53;;;27.30;99.90;;;;;;5040163;28;20264;-82
2022/01/16 04:18:34;;;;;;;17.70;3.72;;;27.40;99.90;;;;;;5033925;28;20191;-82
2022/01/16 04:21:04;;;;;;;13.77;3.97;;;27.30;99.90;;;;;;5032416;28;20191;-82
2022/01/16 04:23:35;;;;;;;13.13;3.53;;;27.40;99.90;;;;;;5033330;28;20237;-83
2022/01/16 04:26:08;;;;;;;11.10;3.38;;;27.40;99.90;;;;;;5035749;28;20207;-78
2022/01/16 04:28:38;;;;;;;14.18;3.63;;;27.30;99.90;;;;;;5037176;28;20189;-84
2022/01/16 04:31:09;;;;;;;12.70;3.90;;;27.20;99.90;;;;;;5035592;28;20191;-80
2022/01/16 04:33:40;;;;;;;15.23;3.92;;;27.10;99.90;;;;;;5032730;28;20214;-80
2022/01/16 04:36:11;;;;;;;14.32;3.35;;;27.00;99.90;;;;;;5033302;28;20194;-82
2022/01/16 04:38:45;;;;;;;19.20;3.92;;;27.00;99.90;;;;;;5033089;28;20194;-78
2022/01/16 04:44:06;;;;;;;17.30;3.53;;;26.80;99.90;;;;;;5041463;28;20198;-79
2022/01/16 04:46:37;;;;;;;15.90;3.65;;;26.80;99.90;;;;;;5041574;28;20199;-81
2022/01/16 04:49:08;;;;;;;15.15;3.75;;;26.70;99.90;;;;;;5032250;28;20244;-79
2022/01/16 04:51:39;;;;;;;13.23;3.80;;;26.70;99.90;;;;;;5035797;28;20190;-79
2022/01/16 04:54:09;;;;;;;14.63;4.10;;;26.80;99.90;;;;;;5033598;28;20194;-81
2022/01/16 04:56:42;;;;;;;15.65;3.70;;;26.90;99.90;;;;;;5033742;28;20218;-79
2022/01/16 04:59:13;;;;;;;17.30;4.05;;;26.80;99.90;;;;;;5033422;28;20599;-79
2022/01/16 05:01:44;;;;;;;15.95;3.63;;;26.80;99.90;;;;;;5040207;28;20182;-79
2022/01/16 05:04:16;;;;;;;14.45;3.70;;;26.80;99.90;;;;;;5032999;28;20237;-79
2022/01/16 05:06:47;;;;;;;17.52;4.60;;;26.80;99.90;;;;;;5036926;28;20202;-78
2022/01/16 05:09:18;;;;;;;15.95;3.63;;;26.80;99.90;;;;;;5033342;28;20195;-82
2022/01/16 05:11:55;;;;;;;13.43;3.70;;;26.70;99.90;;;;;;5032861;28;20190;-80
2022/01/16 05:17:12;;;;;;;19.52;4.18;;;26.60;99.90;;;;;;5031067;28;20193;-81
2022/01/16 05:19:44;;;;;;;16.92;4.10;;;26.60;99.90;;;;;;5029115;28;20194;-81
2022/01/16 05:22:15;;;;;;;16.48;4.22;;;26.50;99.90;;;;;;5035677;28;20198;-79
2022/01/16 05:24:46;;;;;;;20.27;3.80;;;26.50;99.90;;;;;;5038493;28;20221;-79
2022/01/16 05:27:19;;;;;;;18.25;4.07;;;26.50;99.90;;;;;;5032176;28;20206;-80
2022/01/16 05:29:50;;;;;;;15.35;3.88;;;26.50;99.90;;;;;;5033937;28;20194;-79
2022/01/16 05:32:20;;;;;;;12.75;3.60;;;26.40;99.90;;;;;;5038227;28;20804;-81
2022/01/16 05:34:51;;;;;;;14.30;3.65;;;26.30;99.90;;;;;;5032764;28;20198;-80
2022/01/16 05:37:22;;;;;;;11.73;3.53;;;26.20;99.90;;;;;;5031219;28;20233;-84
2022/01/16 05:39:52;;;;;;;17.05;4.00;;;26.30;99.90;;;;;;5029564;28;20761;-80
2022/01/16 05:42:25;;;;;;;15.10;3.83;;;26.20;99.90;;;;;;5038770;28;20204;-79
2022/01/16 05:44:58;;;;;;;19.60;4.32;;;26.10;99.90;;;;;;5035077;28;20187;-80
2022/01/16 05:47:29;;;;;;;17.70;4.10;;;26.10;99.90;;;;;;5039125;28;20673;-79
2022/01/16 05:50:00;;;;;;;14.32;3.88;;;26.20;99.90;;;;;;5025281;28;20186;-82
2022/01/16 05:52:30;;;;;;;18.85;4.30;;;26.20;99.90;;;;;;5029181;28;20214;-83
2022/01/16 05:55:01;;;;;;;18.95;4.35;;;26.10;99.90;;;;;;5033088;28;20202;-83
2022/01/16 05:57:34;;;;;;;12.88;3.80;;;26.10;99.90;;;;;;5035215;28;20201;-80
2022/01/16 06:00:05;;;;;;;15.50;4.22;;;26.00;99.90;;;;;;5036091;28;20194;-83
2022/01/16 06:02:36;;;;;;;21.83;4.30;;;26.00;99.90;;;;;;5034584;28;20244;-82
2022/01/16 06:05:08;;;;;;;12.73;3.60;;;25.80;99.90;;;;;;5036391;28;20194;-84
2022/01/16 06:07:40;;;;;;;18.77;4.03;;;25.70;99.90;;;;;;5036514;28;20186;-79
2022/01/16 06:10:11;;;;;;;21.23;4.20;;;25.80;99.90;;;;;;5027570;28;20278;-78
2022/01/16 06:12:44;;;;;;;14.15;3.83;;;25.80;99.90;;;;;;5035841;28;20217;-84
2022/01/16 06:15:14;;;;;;;19.58;4.30;;;25.60;99.90;;;;;;5040856;28;20186;-82
2022/01/16 06:17:45;;;;;;;19.85;4.40;;;25.70;99.90;;;;;;5036715;28;20191;-81
2022/01/16 06:20:16;;;;;;;17.02;4.00;;;25.80;99.90;;;;;;5036085;28;20592;-82
2022/01/16 06:22:49;;;;;;;20.10;4.57;;;25.80;99.90;;;;;;5036172;28;20222;-78
2022/01/16 06:25:20;;;;;;;17.80;3.97;;;25.80;99.90;;;;;;5038917;28;20249;-79
2022/01/16 06:27:53;;;;;;;16.38;4.22;;;25.90;99.90;;;;;;5036470;28;20189;-80
2022/01/16 06:30:23;;;;;;;16.52;4.75;;;26.00;99.90;;;;;;5034716;28;20241;-79
2022/01/16 06:32:58;;;;;;;19.58;4.28;;;26.10;99.90;;;;;;5042572;28;20221;-84
2022/01/16 06:35:29;;;;;;;11.95;4.05;;;26.00;99.90;;;;;;5038037;28;20524;-83
2022/01/16 06:38:09;;;;;;;16.50;4.00;;;26.10;99.90;;;;;;5037752;28;20233;-82
2022/01/16 06:40:40;;;;;;;15.07;3.78;;;26.10;99.90;;;;;;5037291;28;20190;-79
2022/01/16 06:43:12;;;;;;;17.48;4.57;;;26.00;99.90;;;;;;5037094;28;20209;-78
2022/01/16 06:45:46;;;;;;;17.38;4.30;;;25.80;99.90;;;;;;5037669;28;20203;-77
2022/01/16 06:48:20;;;;;;;14.13;4.03;;;25.70;99.90;;;;;;5034852;28;20560;-78
2022/01/16 06:50:51;;;;;;;18.90;4.60;;;25.70;99.90;;;;;;5034060;28;20193;-80
2022/01/16 06:53:21;;;;;;;13.40;4.60;;;25.80;99.90;;;;;;5043069;28;20214;-82
2022/01/16 06:55:52;;;;;;;16.05;4.00;;;26.00;99.90;;;;;;5036600;28;20187;-79
2022/01/16 06:58:24;;;;;;;19.67;3.92;;;26.00;99.90;;;;;;5038762;28;20182;-82
2022/01/16 07:00:55;;;;;;;12.07;3.75;;;26.00;99.90;;;;;;5035993;28;20191;-80
2022/01/16 07:03:26;;;;;;;16.08;3.97;;;26.00;99.90;;;;;;5035200;28;20214;-81
2022/01/16 07:05:57;;;;;;;20.25;4.35;;;25.90;99.90;;;;;;5038551;28;20646;-79
2022/01/16 07:08:28;;;;;;;16.35;4.45;;;25.80;99.90;;;;;;5038291;28;20592;-78
2022/01/16 07:10:59;;;;;;;15.45;4.15;;;25.70;99.90;;;;;;5036062;28;20368;-82
2022/01/16 07:13:33;;;;;;;19.50;4.30;;;25.60;99.90;;;;;;5034180;28;20210;-80
2022/01/16 07:16:03;;;;;;;19.42;4.53;;;25.60;99.90;;;;;;5038963;28;20190;-81
2022/01/16 07:18:34;;;;;;;17.10;4.20;;;25.50;99.90;;;;;;5042986;28;20231;-83
2022/01/16 07:21:12;;;;;;;16.98;4.60;;;25.50;99.90;;;;;;5035618;28;20182;-80
2022/01/16 07:23:43;;;;;;;13.35;4.53;;;25.60;99.90;;;;;;5036729;28;20702;-81
2022/01/16 07:26:14;;;;;;;16.52;4.20;;;25.60;99.90;;;;;;5036496;28;20191;-80
2022/01/16 07:28:47;;;;;;;20.65;4.60;;;25.60;99.90;;;;;;5034859;28;20187;-81
2022/01/16 07:31:18;;;;;;;18.65;4.85;;;25.60;99.90;;;;;;5034751;28;20197;-81
2022/01/16 07:33:50;;;;;;;14.73;4.05;;;25.60;99.90;;;;;;5048342;28;20237;-79
2022/01/16 07:36:20;;;;;;;18.98;4.70;;;25.70;99.90;;;;;;5032867;28;20199;-79
2022/01/16 07:38:51;;;;;;;15.45;4.50;;;25.70;99.90;;;;;;5038085;28;20535;-85
2022/01/16 07:41:28;;;;;;;13.15;3.92;;;25.60;99.90;;;;;;5034338;28;20191;-85
2022/01/16 07:44:01;;;;;;;16.52;4.68;;;25.70;99.90;;;;;;5031792;28;20210;-77
2022/01/16 07:46:32;;;;;;;20.85;4.18;;;25.60;99.90;;;;;;5031442;28;20670;-81
2022/01/16 07:49:02;;;;;;;18.67;4.45;;;25.60;99.90;;;;;;5037987;28;20635;-83
2022/01/16 07:51:33;;;;;;;14.00;4.22;;;25.50;99.90;;;;;;5036374;28;20593;-81
2022/01/16 07:54:04;;;;;;;20.08;4.30;;;25.60;99.90;;;;;;5035587;28;20221;-83
2022/01/16 07:56:35;;;;;;;17.38;4.40;;;25.60;99.90;;;;;;5030727;28;20205;-83
2022/01/16 07:59:08;;;;;;;14.25;4.03;;;25.60;99.90;;;;;;5030642;28;20612;-82
2022/01/16 08:01:39;;;;;;;18.70;4.22;;;25.50;99.90;;;;;;5033058;28;20191;-81
2022/01/16 08:04:09;;;;;;;14.70;3.63;;;25.50;99.90;;;;;;5032124;28;20226;-82
2022/01/16 08:06:40;;;;;;;12.90;3.88;;;25.60;99.90;;;;;;5030122;28;20186;-78
2022/01/16 08:09:11;;;;;;;20.15;4.15;;;25.60;99.90;;;;;;5030521;28;20197;-80
2022/01/16 08:11:44;;;;;;;17.42;4.20;;;25.60;99.90;;;;;;5032575;28;20202;-78
2022/01/16 08:14:16;;;;;;;17.20;4.03;;;25.70;99.90;;;;;;5032518;28;20233;-78
2022/01/16 08:16:47;;;;;;;17.23;4.15;;;25.70;99.90;;;;;;5033138;28;20201;-78
2022/01/16 08:19:18;;;;;;;19.80;4.43;;;25.70;99.90;;;;;;5025244;28;20647;-77
2022/01/16 08:21:48;;;;;;;18.17;4.63;;;25.70;99.90;;;;;;5030764;28;20290;-78
2022/01/16 08:24:19;;;;;;;16.25;4.55;;;25.60;99.90;;;;;;5032651;28;20226;-78
2022/01/16 08:26:50;;;;;;;18.85;4.43;;;25.50;99.90;;;;;;5032118;28;20202;-78
2022/01/16 08:29:23;;;;;;;20.25;4.60;;;25.50;99.90;;;;;;5032990;28;20186;-79
2022/01/16 08:31:54;;;;;;;18.00;4.50;;;25.30;99.90;;;;;;5033058;28;20183;-78
2022/01/16 08:34:25;;;;;;;15.73;4.53;;;25.20;99.90;;;;;;5031222;28;20682;-79
2022/01/16 08:36:55;;;;;;;18.58;4.63;;;25.20;99.90;;;;;;5033148;28;20201;-79
2022/01/16 08:39:26;;;;;;;17.73;3.95;;;25.00;99.90;;;;;;5032337;28;20209;-78
2022/01/16 08:41:57;;;;;;;15.48;4.22;;;25.00;99.90;;;;;;5032003;28;20198;-79
2022/01/16 08:44:30;;;;;;;20.75;5.03;;;24.80;99.90;;;;;;5032829;28;20187;-78
2022/01/16 08:47:03;;;;;;;13.93;4.45;;;24.80;99.90;;;;;;5033009;28;20543;-80
2022/01/16 08:49:37;;;;;;;19.23;4.30;;;24.70;99.90;;;;;;5032482;28;20646;-79
2022/01/16 08:52:08;;;;;;;17.52;4.25;;;24.80;99.90;;;;;;5031971;28;20608;-81
2022/01/16 08:54:39;;;;;;;15.80;4.55;;;24.60;99.90;;;;;;5034353;28;20305;-79
2022/01/16 08:57:10;;;;;;;16.92;4.40;;;24.60;99.90;;;;;;5032365;28;20191;-80
2022/01/16 08:59:42;;;;;;;18.63;4.47;;;24.60;99.90;;;;;;5032387;28;20666;-79
2022/01/16 09:02:13;;;;;;;19.00;4.93;;;24.50;99.90;;;;;;5032255;28;20228;-80
2022/01/16 09:04:44;;;;;;;15.88;4.25;;;24.40;99.90;;;;;;5032511;28;20639;-79
2022/01/16 09:07:15;;;;;;;16.77;4.82;;;24.40;99.90;;;;;;5032568;28;20241;-78
2022/01/16 09:09:46;;;;;;;19.02;4.60;;;24.30;99.90;;;;;;5031865;28;20194;-79
2022/01/16 09:12:16;;;;;;;17.35;5.35;;;24.30;99.90;;;;;;5032384;28;20560;-79
2022/01/16 09:14:49;;;;;;;18.63;4.65;;;24.20;99.90;;;;;;5031508;28;20268;-78
2022/01/16 09:17:20;;;;;;;19.58;4.70;;;24.20;99.90;;;;;;5026538;28;20662;-80
2022/01/16 09:19:50;;;;;;;15.35;4.45;;;24.20;99.90;;;;;;5031542;28;20198;-79
2022/01/16 09:22:21;;;;;;;15.07;4.75;;;24.20;99.90;;;;;;5030289;28;20194;-78
2022/01/16 09:24:55;;;;;;;19.42;4.95;;;24.10;99.90;;;;;;5031683;28;20233;-80
2022/01/16 09:27:26;;;;;;;19.40;4.70;;;24.10;99.90;;;;;;5032939;28;20244;-81
2022/01/16 09:29:58;;;;;;;17.30;5.05;;;24.10;99.90;;;;;;5031949;28;20198;-82
2022/01/16 09:32:29;;;;;;;18.95;4.93;;;24.10;99.90;;;;;;5036899;28;20209;-82
2022/01/16 09:35:02;;;;;;;18.45;4.70;;;24.10;99.90;;;;;;5033308;28;20210;-81
2022/01/16 09:37:34;;;;;;;21.42;5.10;;;24.10;99.90;;;;;;5024205;28;20186;-80
2022/01/16 09:40:05;;;;;;;22.50;5.43;;;24.10;99.90;;;;;;5035465;28;20235;-84
2022/01/16 09:42:37;;;;;;;26.58;5.35;;;24.10;99.90;;;;;;5036880;28;20190;-82
2022/01/16 09:45:12;;;;;;;22.98;5.20;;;24.00;99.90;;;;;;5037459;28;20197;-82
2022/01/16 09:47:44;;;;;;;20.20;4.85;;;24.00;99.90;;;;;;5035748;28;20186;-83
2022/01/16 09:50:16;;;;;;;18.02;4.80;;;24.00;99.90;;;;;;5032972;28;20226;-82
2022/01/16 09:52:49;;;;;;;16.15;4.47;;;24.00;99.90;;;;;;5031207;28;20186;-79
2022/01/16 09:55:20;;;;;;;24.95;4.82;;;24.00;99.90;;;;;;5033256;28;20221;-80
2022/01/16 09:57:51;;;;;;;16.45;4.70;;;24.00;99.90;;;;;;5035360;28;20186;-79
2022/01/16 10:00:25;;;;;;;18.10;5.00;;;24.00;99.90;;;;;;5035248;28;20193;-79
2022/01/16 10:02:56;;;;;;;20.88;4.80;;;23.90;99.90;;;;;;5031561;28;20296;-78
2022/01/16 10:05:34;;;;;;;22.40;5.00;;;23.90;99.90;;;;;;5036255;28;20654;-79
2022/01/16 10:08:11;;;;;;;19.60;5.18;;;23.90;99.90;;;;;;5028391;28;20666;-79
2022/01/16 10:10:44;;;;;;;18.50;5.03;;;23.90;99.90;;;;;;5029137;28;20194;-80
2022/01/16 10:13:33;;;;;;;18.60;4.90;;;23.90;99.90;;;;;;5022407;28;20201;-79
2022/01/16 10:16:08;;;;;;;20.65;5.00;;;23.90;99.90;;;;;;5028426;28;20531;-80
2022/01/16 10:18:40;;;;;;;19.38;4.93;;;23.90;99.90;;;;;;5038784;28;20193;-78
2022/01/16 10:21:12;;;;;;;16.83;4.30;;;23.90;99.90;;;;;;5031651;28;20190;-79
2022/01/16 10:23:45;;;;;;;16.42;4.55;;;23.90;99.90;;;;;;5031121;28;20238;-77
2022/01/16 10:26:22;;;;;;;19.80;4.85;;;23.90;99.90;;;;;;5032278;28;20689;-79
2022/01/16 10:28:56;;;;;;;16.85;4.53;;;23.90;99.90;;;;;;5043025;28;20201;-79
2022/01/16 10:31:29;;;;;;;17.38;4.95;;;23.90;99.90;;;;;;5031701;28;20208;-80
2022/01/16 10:34:00;;;;;;;21.85;4.47;;;23.90;99.90;;;;;;5039399;28;20214;-79
2022/01/16 10:36:38;;;;;;;19.73;4.70;;;23.90;99.90;;;;;;5029959;28;20194;-79
2022/01/16 10:39:11;;;;;;;20.38;4.90;;;23.80;99.90;;;;;;5035151;28;20194;-80
2022/01/16 10:41:42;;;;;;;16.30;4.60;;;23.80;99.90;;;;;;5028088;28;20195;-78
2022/01/16 10:44:30;;;;;;;16.83;4.50;;;23.80;99.90;;;;;;5031677;28;20205;-79
2022/01/16 10:47:29;;;;;;;18.48;4.80;;;23.70;99.90;;;;;;5027908;28;20191;-79
2022/01/16 10:50:11;;;;;;;17.15;4.57;;;23.80;99.90;;;;;;5030693;28;20198;-79
2022/01/16 10:52:58;;;;;;;15.48;4.47;;;23.80;99.90;;;;;;5033352;28;20194;-79
2022/01/16 10:55:36;;;;;;;19.35;5.03;;;23.80;99.90;;;;;;5035936;28;20712;-78
2022/01/16 10:58:10;;;;;;;18.55;4.70;;;23.70;99.90;;;;;;5030982;28;20557;-80
2022/01/16 11:00:42;;;;;;;16.45;4.50;;;23.70;99.90;;;;;;5034931;28;20257;-79
2022/01/16 11:03:17;;;;;;;15.77;4.38;;;23.80;99.90;;;;;;5032571;28;20226;-83
2022/01/16 11:05:49;;;;;;;20.08;4.88;;;23.80;99.90;;;;;;5040783;28;20555;-82
2022/01/16 11:08:22;;;;;;;13.88;4.45;;;23.70;99.90;;;;;;5035487;28;20197;-80
2022/01/16 11:10:54;;;;;;;16.83;4.88;;;23.70;99.90;;;;;;5035769;28;20183;-79
2022/01/16 11:13:30;;;;;;;16.92;4.55;;;23.70;99.90;;;;;;5035405;28;20186;-79
2022/01/16 11:16:03;;;;;;;13.30;3.95;;;23.70;99.90;;;;;;5037719;28;20610;-79
2022/01/16 11:18:38;;;;;;;12.75;3.88;;;23.70;99.90;;;;;;5039823;28;20240;-79
2022/01/16 11:21:15;;;;;;;15.40;4.30;;;23.70;99.90;;;;;;5035781;28;20207;-78
2022/01/16 11:24:00;;;;;;;17.20;4.80;;;23.70;99.90;;;;;;5034298;28;20261;-78
2022/01/16 11:26:31;;;;;;;20.98;4.28;;;23.70;99.90;;;;;;5032341;28;20198;-78
2022/01/16 11:29:02;;;;;;;15.55;4.55;;;23.80;99.90;;;;;;5034198;28;20635;-78
2022/01/16 11:31:32;;;;;;;10.73;4.50;;;23.80;99.90;;;;;;5035535;28;20612;-78
2022/01/16 11:34:05;;;;;;;16.23;4.45;;;23.80;99.90;;;;;;5038138;28;20225;-78
2022/01/16 11:36:40;;;;;;;13.07;3.78;;;23.80;99.90;;;;;;5037055;28;20187;-80
2022/01/16 11:39:13;;;;;;;13.43;3.97;;;23.90;99.90;;;;;;5035317;28;20642;-79
2022/01/16 11:41:57;;;;;;;17.10;4.60;;;23.90;99.90;;;;;;5033098;28;20222;-80
2022/01/16 11:44:29;;;;;;;21.45;4.68;;;23.90;99.90;;;;;;5032051;28;20229;-80
2022/01/16 11:47:01;;;;;;;13.30;4.15;;;23.90;99.90;;;;;;5032593;28;20659;-80
2022/01/16 11:49:41;;;;;;;18.38;4.25;;;23.90;99.90;;;;;;5029533;28;20693;-79
2022/01/16 11:52:13;;;;;;;19.90;4.10;;;23.90;99.90;;;;;;5032600;28;20198;-80
2022/01/16 11:54:45;;;;;;;18.45;4.50;;;23.90;99.90;;;;;;5031871;28;20214;-82
2022/01/16 11:57:27;;;;;;;19.08;4.50;;;24.00;99.90;;;;;;5032893;28;20658;-82
2022/01/16 12:00:09;;;;;;;16.77;4.15;;;23.90;99.90;;;;;;5031947;28;20674;-79
2022/01/16 12:02:45;;;;;;;19.42;4.55;;;23.90;99.90;;;;;;5034300;28;20229;-82
2022/01/16 12:05:24;;;;;;;14.20;4.38;;;24.00;99.90;;;;;;5031750;28;20204;-80
2022/01/16 12:07:57;;;;;;;19.85;4.35;;;24.00;99.90;;;;;;5031109;28;20201;-80
2022/01/16 12:10:50;;;;;;;14.35;3.95;;;23.90;99.90;;;;;;5036325;28;20194;-81
2022/01/16 12:13:49;;;;;;;17.83;4.70;;;23.90;99.90;;;;;;5031550;28;20655;-78
2022/01/16 12:16:38;;;;;;;17.95;4.22;;;23.90;99.90;;;;;;5036217;28;20226;-79
2022/01/16 12:19:41;;;;;;;21.35;4.65;;;23.90;99.90;;;;;;5037817;28;20189;-81
2022/01/16 12:22:18;;;;;;;22.80;4.82;;;23.90;99.90;;;;;;5038677;28;20627;-81
2022/01/16 12:25:07;;;;;;;20.20;4.55;;;23.90;99.90;;;;;;5034718;28;20252;-81
2022/01/16 12:27:49;;;;;;;18.17;4.45;;;24.00;99.90;;;;;;5041238;28;20206;-81
2022/01/16 12:30:26;;;;;;;20.25;4.78;;;24.00;99.90;;;;;;5040050;28;20205;-80
2022/01/16 12:32:59;;;;;;;13.13;4.45;;;24.00;99.90;;;;;;5033692;28;20634;-81
2022/01/16 12:36:11;;;;;;;16.58;4.10;;;24.00;99.90;;;;;;5032052;28;20210;-78
2022/01/16 12:38:48;;;;;;;15.15;4.45;;;24.00;99.90;;;;;;5036597;28;20548;-79
2022/01/16 12:41:25;;;;;;;15.02;4.45;;;24.00;99.90;;;;;;5032139;28;20556;-81
2022/01/16 12:43:58;;;;;;;20.20;5.10;;;24.00;99.90;;;;;;5036027;28;20194;-79
2022/01/16 12:46:32;;;;;;;19.70;4.82;;;24.00;99.90;;;;;;5037344;28;20638;-81
2022/01/16 12:49:06;;;;;;;21.17;4.43;;;24.00;99.90;;;;;;5031825;28;20187;-82
2022/01/16 12:51:38;;;;;;;15.38;4.60;;;24.00;99.90;;;;;;5032650;28;20212;-79
2022/01/16 12:54:15;;;;;;;16.52;4.72;;;24.00;99.90;;;;;;5027885;28;20209;-80
2022/01/16 12:56:47;;;;;;;18.60;4.63;;;24.00;99.90;;;;;;5033323;28;20648;-79
2022/01/16 12:59:20;;;;;;;14.25;4.45;;;24.00;99.90;;;;;;5034387;28;20194;-81
2022/01/16 13:01:52;;;;;;;17.48;4.60;;;24.00;99.90;;;;;;5031188;28;20230;-82
2022/01/16 13:04:30;;;;;;;19.40;4.63;;;23.90;99.90;;;;;;5033603;28;20201;-82
2022/01/16 13:07:09;;;;;;;15.40;4.30;;;23.90;99.90;;;;;;5032881;28;20209;-80
2022/01/16 13:09:42;;;;;;;14.38;4.28;;;23.90;99.90;;;;;;5033805;28;20198;-81
2022/01/16 13:12:13;;;;;;;22.15;5.00;;;23.90;99.90;;;;;;5032767;28;20564;-82
2022/01/16 13:14:48;;;;;;;17.95;4.75;;;23.90;99.90;;;;;;5032196;28;20217;-82
2022/01/16 13:17:19;;;;;;;15.77;5.28;;;23.90;99.90;;;;;;5033042;28;20224;-82
2022/01/16 13:19:53;;;;;;;17.40;4.50;;;23.90;99.90;;;;;;5031171;28;21169;-82
2022/01/16 13:22:27;;;;;;;16.98;4.93;;;23.90;99.90;;;;;;5032259;28;20269;-82
2022/01/16 13:25:03;;;;;;;17.70;4.90;;;23.90;99.90;;;;;;5029124;28;20701;-81
2022/01/16 13:27:38;;;;;;;16.20;4.55;;;23.90;99.90;;;;;;5032561;28;20634;-79
2022/01/16 13:30:13;;;;;;;17.90;5.13;;;23.90;99.90;;;;;;5034914;28;20658;-78
2022/01/16 13:32:44;;;;;;;15.32;4.88;;;23.80;99.90;;;;;;5032172;28;20204;-78
2022/01/16 13:35:24;;;;;;;14.02;4.20;;;23.80;99.90;;;;;;5034800;28;20297;-79
2022/01/16 13:37:56;;;;;;;19.80;4.63;;;23.90;99.90;;;;;;5035048;28;20595;-79